Nashville, Tennessee
Traffic Map
Current Weather Conditions
Nashville, Tennessee
Clear
Clear
51°
Feels Like: 51°
Wind Chill: 51° Ceiling: Unl
Heat Index: 51° Visibility: 9mi
Dew Point: 49° Wind: 5mph
Humidity: 92% Direction: 200° (SSW)
Pressure: 30.1in Gusts: 0mph
Raw Report DataKBNA 300453Z 20004KT 9SM CLR 11/09 A3010 RMK AO2 SLP190 T01060094
Traffic Incident Summary
Active as of:
Severity:
Category:
InformationThere was an issue retrieving the traffic information for this location. Please try a different location or try again shortly.
Advertisements
Track Severe Weather on mobile